KEGEKPGA

Guest
Details From KEGE - EAGLE CO RGNL
To KPGA - PAGE MUNI
Flight Number -
Tags decoded
Created
Modified
Stats Distance 297 nm / 550 km
Max Altitude 0 ft / 0 m
Waypoints 6
Social Downloads 1
Likes 0
Share VATSIM

Download

Looking for another format? Having issues loading an existing format? Contact us
Advertisement - Login to hide

Notes

Requested: KEGE DBL JNC HVE PGA KPGA

Route

KEGE DBL JNC HVE PGA KPGA

ID Type Via Altitude Latitude Longitude Leg Dist Tot Dist Heading (true) Name
O KEGE APT - 0 ft / 0 m 39.64257˚ -106.91770˚ - 0 nm - EAGLE CO RGNL
DBL VOR - 0 ft / 0 m 39.43933˚ -106.89467˚ 12 nm 12 nm 175° / 175° RED TABLE VOR-DME
JNC VOR - 0 ft / 0 m 39.05956˚ -108.79258˚ 91 nm 103 nm 256° / 255° GRAND JUNCTION VOR-DME
HVE VOR - 0 ft / 0 m 38.41681˚ -110.69972˚ 97 nm 200 nm 247° / 246° HANKSVILLE VORTAC
PGA VOR - 0 ft / 0 m 36.93106˚ -111.44744˚ 96 nm 296 nm 202° / 201° PAGE VOR-DME
O KPGA APT - 0 ft / 0 m 36.92718˚ -111.44882˚ 0 nm 297 nm 196° / 196° PAGE MUNI

Altitude Profile

Advertisement - Login to hide

Weather


0- 5 10 15 20 25 30 35+ Temperature / ° C

Clouds and Precipitation
Forecast for 2018-05-25 12:00 UTC. Updated 3 minutes ago

Ground ~20,000 ft ~40,000 ft Winds

KEGE

Details ICAO KEGE (EGE)
Name EAGLE CO RGNL
Region United States
Timezone America/Denver (UTC-6.0)
Stats Elevation 6,540 ft / 1,993 m (AMSL)
Location 39.642567° -106.917696°
Runways 1
Magnetic Variation 9.119° E

METAR

KEGE 251056Z AUTO 10005KT 10SM CLR 04/M03 A3028 RMK AO2 SLP211 T00441028

Decode

TAF

TAF KEGE 250520Z 2506/2606 14003KT P6SM SKC FM251900 23007KT P6SM SKC FM252100 23013G21KT P6SM FEW250 FM260300 VRB04KT P6SM FEW250 AMD LTD TO CLD VIS AND WIND TIL 251300

Decode

Departure Runways

ID Width Length Bearing (true) Bearing (mag) Surface Threshold Offset Overrun Length
07 150 ft / 46 m 7,981 ft / 2,433 m 81.90° 72.78° Asphalt 0 ft / 0 m 0 ft / 0 m
25 150 ft / 46 m 7,981 ft / 2,433 m 261.92° 252.80° Asphalt 0 ft / 0 m 0 ft / 0 m

KPGA

Details ICAO KPGA (PGA)
Name PAGE MUNI
Region United States
Timezone America/Denver (UTC-6.0)
Stats Elevation 4,313 ft / 1,315 m (AMSL)
Location 36.927176° -111.448815°
Runways 2
Magnetic Variation 10.618° E

METAR

KPGA 251053Z AUTO 21006KT 10SM CLR 19/M06 A3005 RMK AO2 SLP109 T01891061 TSNO

Decode

TAF

TAF KPGA 250533Z 2506/2606 VRB05KT P6SM SKC FM252030 20010G22KT P6SM SKC FM260200 21008KT P6SM SKC

Decode

Destination Runways

ID Width Length Bearing (true) Bearing (mag) Surface Threshold Offset Overrun Length
07 100 ft / 30 m 2,196 ft / 669 m 82.10° 71.48° Asphalt 588 ft / 179 m 0 ft / 0 m
15 150 ft / 46 m 5,959 ft / 1,816 m 170.27° 159.65° Asphalt 0 ft / 0 m 0 ft / 0 m
25 100 ft / 30 m 2,196 ft / 669 m 262.10° 251.48° Asphalt 0 ft / 0 m 0 ft / 0 m
33 150 ft / 46 m 5,959 ft / 1,816 m 350.27° 339.65° Asphalt 0 ft / 0 m 0 ft / 0 m